To NAV CANADA Home Page Login to a new session Search on AWWS site Disclaimer Vers la page française équivalente Tips FAQ What's new on the site To the Forecasts and Observations / NOTAM section To "File a Flight Plan" website Publications and other links Update of the User's profile FIC Telephone Numbers My Weather Data Folder Route Weather Data Regional Weather Data Local Weather Data To the Forecasts and Observations / NOTAM section
Request Generated 09/16/2021 at 14:57:19 UTC . Weather information available at that time is displayed.

METAR/TAF

TOFINO/LONG BEACH/BC    

METAR CYAZ 161400Z 00000KT 10SM MIFG FEW180 05/05 A3015 RMK AC1 AC TR SLP212=
METAR CYAZ 161300Z 03002KT 15SM SKC 06/05 A3014 RMK SLP208=
LWIS CYAZ 161200Z AUTO VRB02KT 06/06 A3013=

TAF CYAZ 161438Z 1615/1701 VRB03KT P6SM FEW180 PROB30 1615/1618 3SM
BR BKN020
FM161800 14010KT P6SM SCT180
FM162300 14010KT P6SM SCT080 BKN180
RMK NXT FCST BY 161900Z=
Your time UTC time
Weather data provided by Environment Canada and NAV CANADA